METAR AND TAF INFORMATION
METAR FOR LGKL
ADDS - METARS form results

(1303 UTC 19 October 2021)
Data provider http://aviationweather.gov/metar/data/
 
METAR text: LGKL 191250Z 20004KT 9999 SCT020TCU SCT080 22/13 Q1024
Conditions at: LGKL (KALAMATA (HEL-AF, GR) observed 1250 UTC 19 October 2021
Temperature: 22.0°C (72°F)
Dewpoint: 13.0°C (55°F) [RH = 57%]
Pressure (altimeter): 30.24 inches Hg (1024.0 mb)
Winds: from the SSW (200 degrees) at 5 MPH (4 knots; 2.1 m/s)
Visibility: 6 or more miles (10+ km)
Ceiling: at least 12,000 feet AGL
Clouds: scattered clouds at 2000 feet AGL
scattered clouds at 8000 feet AGL
Weather: no significant weather observed at this time

METAR text: LGKL 191220Z 23004KT 9999 SCT020TCU 22/13 Q1024
Conditions at: LGKL (KALAMATA (HEL-AF, GR) observed 1220 UTC 19 October 2021
Temperature: 22.0°C (72°F)
Dewpoint: 13.0°C (55°F) [RH = 57%]
Pressure (altimeter): 30.24 inches Hg (1024.0 mb)
Winds: from the SW (230 degrees) at 5 MPH (4 knots; 2.1 m/s)
Visibility: 6 or more miles (10+ km)
Ceiling: at least 12,000 feet AGL
Clouds: scattered clouds at 2000 feet AGL
Weather: no significant weather observed at this time

Forecast for: LGKL (KALAMATA (HEL-AF, GR)
Text: TAF LGKL 191100Z 1912/1921 15005KT 9999 SCT020 SCT080
Forecast period: 1200 to 2100 UTC 19 October 2021
Forecast type: FROM: standard forecast or significant change
Winds: from the SSE (150 degrees) at 6 MPH (5 knots; 2.6 m/s)
Visibility: 6 or more miles (10+ km)
Ceiling: at least 12,000 feet AGL
Clouds: scattered clouds at 2000 feet AGL
scattered clouds at 8000 feet AGL
Weather: no significant weather forecast for this period
Text: PROB30
Forecast period: 1200 to 1500 UTC 19 October 2021
Forecast type: TEMPORARY: The following changes expected for less than half the time period
Visibility: 3 miles (5 km)
Ceiling: 8000 feet AGL
Clouds: scattered clouds at 2000 feet AGL
broken clouds at 8000 feet AGL
Weather: RA  (moderate rain)

 AIRPORT MAP

 RUNWAY INFORMATION
Runway 17R Runway length 9260 ft Runway width 148 ft
Runway elevation 26 ft Runway displaced threshold 240 ft Runway heading 169
Runway 35L Runway length 9260 ft Runway width 148 ft
Runway elevation 16 ft Runway displaced threshold 250 ft Runway heading 349

 AIRPORT FREQUENCIES
Type A/G Name RDO Frequency 563.7 MHZ
Type APP Name APP Frequency 120.75 MHZ
Type TWR Name TWR Frequency 120.75 MHZ

 AIRPORT NEAR NAVIGATION AIDS
Type VOR-DME Name Kalamata Frequency 112600 KHZ
Type TACAN Name Kalamata Frequency 115200 KHZ
Type NDB Name Kalamata Frequency 348 KHZ



Powered by Heron Airways VA. All Rights Reserved © 2009 [v2.6.2]